createdAt,value
2022-09-30T00:06:05.743Z,4091.5
2022-09-30T00:11:58.756Z,4089.7
2022-09-30T00:17:39.968Z,4087.3
2022-09-30T00:23:23.432Z,4088.2
2022-09-30T00:28:59.155Z,4088.8
2022-09-30T00:34:42.636Z,4091
2022-09-30T00:40:17.566Z,4089.3
2022-09-30T00:46:00.719Z,4088.3
2022-09-30T00:51:36.677Z,4086
2022-09-30T00:57:19.566Z,4088.8
2022-09-30T01:02:55.771Z,4087.7
2022-09-30T01:08:51.105Z,4087.5
2022-09-30T01:14:47.603Z,4088.3
2022-09-30T01:20:22.355Z,4087.7
2022-09-30T01:25:57.175Z,4084.7
2022-09-30T01:31:52.465Z,4087.5
2022-09-30T01:37:38.181Z,4083.8
2022-09-30T01:43:16.189Z,4083.6
2022-09-30T01:48:54.255Z,4079
2022-09-30T01:54:31.732Z,4087
2022-09-30T02:00:07.476Z,4082.8
2022-09-30T02:05:47.811Z,4084.8
2022-09-30T02:11:30.676Z,4082.8
2022-09-30T02:17:06.621Z,4084.5
2022-09-30T02:22:45.579Z,4085.2
2022-09-30T02:28:24.606Z,4079.1
2022-09-30T02:34:08.059Z,4083.3
2022-09-30T02:40:04.280Z,4081
2022-09-30T02:46:34.986Z,4079.1
2022-09-30T02:52:18.538Z,4078.1
2022-09-30T02:57:53.242Z,4078.3
2022-09-30T03:03:28.669Z,4077.6
2022-09-30T03:09:04.345Z,4080.6
2022-09-30T03:14:39.934Z,4079.8
2022-09-30T03:20:22.540Z,4079.6
2022-09-30T03:25:58.624Z,4082.3
2022-09-30T03:31:35.461Z,4077.8
2022-09-30T03:37:11.537Z,4075.9
2022-09-30T03:42:48.782Z,4076.4
2022-09-30T03:48:23.530Z,4074.1
2022-09-30T03:54:04.120Z,4077.1
2022-09-30T03:59:38.988Z,4078.3
2022-09-30T04:05:14.085Z,4077.8
2022-09-30T04:10:50.122Z,4076.1
2022-09-30T04:16:35.517Z,4073.4
2022-09-30T04:22:10.732Z,4076.4
2022-09-30T04:27:51.593Z,4074.1
2022-09-30T04:33:33.794Z,4072.3
2022-09-30T04:39:09.058Z,4077.6
2022-09-30T04:44:48.543Z,4074.8
2022-09-30T04:50:24.422Z,4073.6
2022-09-30T04:56:04.460Z,4073.1
2022-09-30T05:01:40.437Z,4074.9
2022-09-30T05:07:16.097Z,4073.8
2022-09-30T05:12:51.353Z,4072.3
2022-09-30T05:18:26.230Z,4074.6
2022-09-30T05:24:39.333Z,4073.9
2022-09-30T05:30:21.517Z,4070.9
2022-09-30T05:35:56.803Z,4069.9
2022-09-30T05:41:40.404Z,4072.6
2022-09-30T05:47:16.912Z,4069.1
2022-09-30T05:52:51.710Z,4068.2
2022-09-30T05:58:37.325Z,4068.6
2022-09-30T06:04:16.392Z,4067.9
2022-09-30T06:10:13.852Z,4068.7
2022-09-30T06:15:53.388Z,4070.9
2022-09-30T06:21:31.541Z,4070.3
2022-09-30T06:27:17.029Z,4069.1
2022-09-30T06:32:52.278Z,4066.9
2022-09-30T06:38:33.405Z,4071.3
2022-09-30T06:44:18.632Z,4069.2
2022-09-30T06:50:26.119Z,4070.4
2022-09-30T06:56:04.041Z,4075.6
2022-09-30T07:01:45.917Z,4078.1
2022-09-30T07:07:20.718Z,4081.3
2022-09-30T07:12:58.475Z,4082.3
2022-09-30T07:18:34.108Z,4082
2022-09-30T07:24:09.025Z,4085.5
2022-09-30T07:30:28.455Z,4087.7
2022-09-30T07:36:04.503Z,4087.3
2022-09-30T07:41:41.023Z,4100.4
2022-09-30T07:47:42.816Z,4092.5
2022-09-30T07:53:22.917Z,4107.9
2022-09-30T07:59:01.138Z,4111.1
2022-09-30T08:04:45.855Z,4105.1
2022-09-30T08:10:21.514Z,4109.9
2022-09-30T08:15:59.791Z,4213.6
2022-09-30T08:21:39.227Z,4179.8
2022-09-30T08:27:15.021Z,4220
2022-09-30T08:32:51.542Z,4167.9
2022-09-30T08:38:26.833Z,4164.2
2022-09-30T08:44:02.089Z,4148.6
2022-09-30T08:49:36.889Z,4152.5
2022-09-30T08:55:15.409Z,4147.1
2022-09-30T09:00:54.475Z,4158.7
2022-09-30T09:06:29.372Z,4201.9
2022-09-30T09:12:14.420Z,4161.4
2022-09-30T09:18:28.758Z,4169.6
2022-09-30T09:24:08.399Z,4140.1
2022-09-30T09:29:43.570Z,4136.9
2022-09-30T09:35:19.050Z,4171.1
2022-09-30T09:40:54.364Z,4221.2
2022-09-30T09:46:30.013Z,4197.4
2022-09-30T09:52:27.108Z,4217.5
2022-09-30T09:58:02.436Z,4206.8
2022-09-30T10:03:46.934Z,4200.1
2022-09-30T10:09:23.434Z,4200.9
2022-09-30T10:14:58.776Z,4200.2
2022-09-30T10:20:36.526Z,4201.4
2022-09-30T10:26:18.011Z,4189
2022-09-30T10:32:01.581Z,4196.7
2022-09-30T10:37:37.664Z,4196
2022-09-30T10:43:12.835Z,4183
2022-09-30T10:48:47.535Z,4197.7
2022-09-30T10:54:24.479Z,4195
2022-09-30T10:59:59.801Z,4182.5
2022-09-30T11:05:37.624Z,4197.2
2022-09-30T11:11:13.063Z,4180.3
2022-09-30T11:16:49.679Z,4200.2
2022-09-30T11:22:24.923Z,4203.4
2022-09-30T11:28:09.699Z,4170.9
2022-09-30T11:33:53.505Z,4193.4
2022-09-30T11:39:28.229Z,4205.8
2022-09-30T11:45:04.293Z,4199.7
2022-09-30T11:50:39.302Z,4186.8
2022-09-30T11:56:14.341Z,4203.1
2022-09-30T12:02:12.099Z,4211
2022-09-30T12:07:47.597Z,4201.9
2022-09-30T12:13:22.684Z,4215.5
2022-09-30T12:18:58.318Z,4180.3
2022-09-30T12:24:32.989Z,4190.2
2022-09-30T12:30:07.957Z,4209.4
2022-09-30T12:35:42.982Z,4195.2
2022-09-30T12:41:18.176Z,4200.6
2022-09-30T12:46:53.289Z,4210.4
2022-09-30T12:52:28.286Z,4197.4
2022-09-30T12:58:03.070Z,4196.7
2022-09-30T13:03:38.090Z,4217.1
2022-09-30T13:09:13.386Z,4205.8
2022-09-30T13:14:48.562Z,4199.7
2022-09-30T13:20:23.504Z,4200.6
2022-09-30T13:25:58.862Z,4218.5
2022-09-30T13:31:34.926Z,4202.9
2022-09-30T13:37:13.937Z,4200.1
2022-09-30T13:42:49.089Z,4205.8
2022-09-30T13:48:24.052Z,4213.5
2022-09-30T13:53:59.112Z,4218.2
2022-09-30T13:59:34.129Z,4207.6
2022-09-30T14:05:09.273Z,4203.1
2022-09-30T14:10:44.371Z,4220.7
2022-09-30T14:16:20.851Z,4197
2022-09-30T14:21:56.037Z,4207.9
2022-09-30T14:27:31.058Z,4209.6
2022-09-30T14:33:07.555Z,4210.3
2022-09-30T14:38:42.784Z,4220
2022-09-30T14:44:17.844Z,4222.3
2022-09-30T14:49:54.713Z,4212
2022-09-30T14:55:30.628Z,4227.9
2022-09-30T15:01:06.160Z,4207.3
2022-09-30T15:06:42.351Z,4211
2022-09-30T15:12:17.958Z,4214
2022-09-30T15:17:52.832Z,4203.9
2022-09-30T15:23:28.109Z,4202.6
2022-09-30T15:29:03.742Z,4216.8
2022-09-30T15:34:38.443Z,4211.5
2022-09-30T15:40:13.478Z,4209.1
2022-09-30T15:45:49.366Z,4209.4
2022-09-30T15:51:24.518Z,4204.8
2022-09-30T15:56:59.258Z,4198.6
2022-09-30T16:02:34.673Z,4203.7
2022-09-30T16:08:09.476Z,4200.6
2022-09-30T16:14:06.392Z,4199.2
2022-09-30T16:19:39.897Z,4200.7
2022-09-30T16:25:15.573Z,4201.1
2022-09-30T16:30:51.741Z,4199.6
2022-09-30T16:36:26.503Z,4195.7
2022-09-30T16:42:01.212Z,4197.6
2022-09-30T16:47:36.013Z,4193.5
2022-09-30T16:53:12.217Z,4195.5
2022-09-30T16:58:46.905Z,4194.2
2022-09-30T17:04:23.253Z,4193.5
2022-09-30T17:09:59.408Z,4190.3
2022-09-30T17:15:34.315Z,4191.2
2022-09-30T17:21:09.361Z,4190.9
2022-09-30T17:26:50.030Z,4187.5
2022-09-30T17:32:24.889Z,4188.2
2022-09-30T17:37:59.866Z,4193.4
2022-09-30T17:43:35.173Z,4189
2022-09-30T17:49:10.132Z,4185
2022-09-30T17:54:53.512Z,4188.7
2022-09-30T18:00:28.852Z,4185.5
2022-09-30T18:06:04.843Z,4185.7
2022-09-30T18:11:46.538Z,4184
2022-09-30T18:17:22.412Z,4184.3
2022-09-30T18:22:57.532Z,4184.7
2022-09-30T18:28:33.736Z,4182
2022-09-30T18:34:09.505Z,4184
2022-09-30T18:39:45.247Z,4181.3
2022-09-30T18:45:20.412Z,4181
2022-09-30T18:50:55.350Z,4182.6
2022-09-30T18:56:31.059Z,4179.3
2022-09-30T19:02:06.859Z,4178.5
2022-09-30T19:07:41.812Z,4180
2022-09-30T19:13:39.002Z,4175.8
2022-09-30T19:19:12.844Z,4178.5
2022-09-30T19:24:55.227Z,4178.3
2022-09-30T19:30:29.897Z,4174.9
2022-09-30T19:36:16.204Z,4178.5
2022-09-30T19:41:51.504Z,4178.1
2022-09-30T19:47:34.917Z,4178
2022-09-30T19:53:31.412Z,4177.6
2022-09-30T19:59:06.798Z,4176.3
2022-09-30T20:04:41.776Z,4176.1
2022-09-30T20:10:17.586Z,4175.9
2022-09-30T20:15:53.759Z,4174.6
2022-09-30T20:21:28.823Z,4175.8
2022-09-30T20:27:04.123Z,4174.1
2022-09-30T20:32:39.617Z,4174.6
2022-09-30T20:38:15.629Z,4174.9
2022-09-30T20:43:50.885Z,4174.4
2022-09-30T20:49:25.949Z,4175.3
2022-09-30T20:55:01.798Z,4172.3
2022-09-30T21:00:37.858Z,4174.1
2022-09-30T21:06:13.591Z,4171.1
2022-09-30T21:12:15.557Z,4168.4
2022-09-30T21:17:48.724Z,4168.4
2022-09-30T21:23:26.941Z,4171.6
2022-09-30T21:29:02.071Z,4173.4
2022-09-30T21:34:37.156Z,4171.4
2022-09-30T21:40:23.772Z,4169.6
2022-09-30T21:45:59.449Z,4169.7
2022-09-30T21:51:36.893Z,4170.1
2022-09-30T21:57:25.375Z,4169.9
2022-09-30T22:03:00.154Z,4172.4
2022-09-30T22:09:03.444Z,4168.2
2022-09-30T22:14:41.089Z,4167.9
2022-09-30T22:20:16.186Z,4169.2
2022-09-30T22:25:50.973Z,4169.7
2022-09-30T22:31:35.529Z,4168.4
2022-09-30T22:37:25.398Z,4167.4
2022-09-30T22:43:00.228Z,4168.4
2022-09-30T22:48:39.424Z,4168.9
2022-09-30T22:54:20.871Z,4166.4
2022-09-30T22:59:57.769Z,4169.9
2022-09-30T23:05:39.956Z,4167.4
2022-09-30T23:11:37.734Z,4163
2022-09-30T23:17:10.227Z,4169.2
2022-09-30T23:22:46.258Z,4165.6
2022-09-30T23:28:22.436Z,4164.7
2022-09-30T23:34:01.554Z,4166.1
2022-09-30T23:39:46.224Z,4165.2
2022-09-30T23:45:31.984Z,4164.7
2022-09-30T23:51:19.975Z,4164.4
2022-09-30T23:56:59.092Z,4165.7
